createdAt,value
2017-07-11T00:01:53.948Z,69.70
2017-07-11T00:04:21.174Z,70.20
2017-07-11T00:06:47.332Z,69.60
2017-07-11T00:09:13.648Z,70.30
2017-07-11T00:11:42.553Z,69.60
2017-07-11T00:14:08.925Z,69.60
2017-07-11T00:16:35.867Z,70.30
2017-07-11T00:19:02.466Z,69.50
2017-07-11T00:21:29.108Z,69.70
2017-07-11T00:23:55.486Z,70.00
2017-07-11T00:26:22.446Z,70.80
2017-07-11T00:28:48.611Z,70.20
2017-07-11T00:31:15.219Z,70.00
2017-07-11T00:33:41.540Z,70.50
2017-07-11T00:36:07.789Z,70.80
2017-07-11T00:38:33.979Z,70.80
2017-07-11T00:41:00.956Z,71.40
2017-07-11T00:43:27.104Z,70.60
2017-07-11T00:45:53.296Z,70.40
2017-07-11T00:48:20.246Z,71.30
2017-07-11T00:50:46.457Z,70.30
2017-07-11T00:53:13.484Z,70.60
2017-07-11T00:55:39.676Z,70.40
2017-07-11T00:58:05.827Z,70.90
2017-07-11T01:00:32.007Z,70.60
2017-07-11T01:02:59.298Z,70.10
2017-07-11T01:05:25.465Z,70.30
2017-07-11T01:07:52.415Z,70.90
2017-07-11T01:10:19.443Z,70.50
2017-07-11T01:12:45.608Z,69.90
2017-07-11T01:15:11.803Z,70.30
2017-07-11T01:17:37.996Z,70.60
2017-07-11T01:20:04.165Z,71.70
2017-07-11T01:22:30.310Z,71.10
2017-07-11T01:24:57.414Z,71.80
2017-07-11T01:27:23.585Z,71.00
2017-07-11T01:29:49.842Z,71.60
2017-07-11T01:32:16.000Z,72.10
2017-07-11T01:34:42.257Z,71.50
2017-07-11T01:37:08.451Z,72.10
2017-07-11T01:39:34.636Z,72.10
2017-07-11T01:42:01.568Z,73.00
2017-07-11T01:44:28.497Z,73.00
2017-07-11T01:46:54.680Z,72.50
2017-07-11T01:49:20.908Z,72.90
2017-07-11T01:51:47.136Z,72.10
2017-07-11T01:54:13.303Z,72.30
2017-07-11T01:56:39.554Z,72.60
2017-07-11T01:59:06.504Z,74.00
2017-07-11T02:01:33.446Z,73.30
2017-07-11T02:04:00.384Z,73.20
2017-07-11T02:06:26.586Z,73.20
2017-07-11T02:08:52.799Z,73.20
2017-07-11T02:11:18.964Z,72.80
2017-07-11T02:13:45.194Z,72.80
2017-07-11T02:16:11.383Z,73.70
2017-07-11T02:18:37.541Z,73.10
2017-07-11T02:21:03.751Z,73.40
2017-07-11T02:23:29.939Z,73.80
2017-07-11T02:25:56.891Z,73.60
2017-07-11T02:28:23.053Z,73.60
2017-07-11T02:30:49.220Z,73.50
2017-07-11T02:33:16.141Z,73.50
2017-07-11T02:35:42.335Z,73.30
2017-07-11T02:38:08.507Z,72.90
2017-07-11T02:40:34.756Z,73.60
2017-07-11T02:43:00.985Z,72.80
2017-07-11T02:45:27.955Z,72.80
2017-07-11T02:47:54.120Z,72.80
2017-07-11T02:50:20.273Z,73.10
2017-07-11T02:52:46.448Z,73.50
2017-07-11T02:55:12.646Z,74.10
2017-07-11T02:57:39.587Z,74.10
2017-07-11T03:00:06.487Z,74.20
2017-07-11T03:02:32.655Z,73.30
2017-07-11T03:04:59.597Z,74.00
2017-07-11T03:07:26.543Z,74.20
2017-07-11T03:09:53.471Z,74.20
2017-07-11T03:12:19.650Z,74.20
2017-07-11T03:14:45.858Z,73.80
2017-07-11T03:17:12.739Z,74.40
2017-07-11T03:19:38.896Z,74.00
2017-07-11T03:22:05.104Z,75.10
2017-07-11T03:24:31.347Z,75.10
2017-07-11T03:26:57.530Z,75.90
2017-07-11T03:29:23.698Z,76.30
2017-07-11T03:31:49.870Z,76.80
2017-07-11T03:34:16.778Z,76.90
2017-07-11T03:36:42.980Z,76.80
2017-07-11T03:39:09.168Z,76.80
2017-07-11T03:41:36.133Z,77.40
2017-07-11T03:44:02.337Z,77.40
2017-07-11T03:46:29.260Z,77.20
2017-07-11T03:48:55.693Z,76.50
2017-07-11T03:51:21.846Z,76.80
2017-07-11T03:53:48.859Z,78.20
2017-07-11T03:56:15.072Z,77.00
2017-07-11T03:58:41.275Z,77.60
2017-07-11T04:01:07.438Z,77.60
2017-07-11T04:03:33.685Z,77.70
2017-07-11T04:05:59.877Z,77.40
2017-07-11T04:08:26.065Z,78.00
2017-07-11T04:10:52.995Z,77.60
2017-07-11T04:13:19.197Z,77.20
2017-07-11T04:15:45.371Z,77.00
2017-07-11T04:18:12.279Z,77.60
2017-07-11T04:20:38.643Z,77.60
2017-07-11T04:23:05.540Z,78.50
2017-07-11T04:25:31.739Z,78.40
2017-07-11T04:27:57.987Z,77.90
2017-07-11T04:30:24.164Z,77.90
2017-07-11T04:32:50.317Z,77.90
2017-07-11T04:35:16.487Z,77.90
2017-07-11T04:37:42.685Z,77.50
2017-07-11T04:40:08.931Z,77.00
2017-07-11T04:42:35.814Z,77.30
2017-07-11T04:45:02.766Z,78.10
2017-07-11T04:47:28.951Z,78.00
2017-07-11T04:49:55.114Z,77.70
2017-07-11T04:52:21.670Z,77.70
2017-07-11T04:54:48.610Z,79.10
2017-07-11T04:57:14.799Z,78.80
2017-07-11T04:59:40.998Z,78.80
2017-07-11T05:02:07.171Z,79.40
2017-07-11T05:04:33.341Z,78.80
2017-07-11T05:06:59.508Z,79.30
2017-07-11T05:09:49.635Z,79.10
2017-07-11T05:12:16.561Z,80.00
2017-07-11T05:14:42.767Z,80.00
2017-07-11T05:17:08.950Z,80.10
2017-07-11T05:19:35.893Z,79.90
2017-07-11T05:22:02.848Z,79.40
2017-07-11T05:24:29.760Z,79.20
2017-07-11T05:26:55.949Z,79.10
2017-07-11T05:29:22.166Z,77.80
2017-07-11T05:31:48.375Z,78.30
2017-07-11T05:34:15.270Z,77.80
2017-07-11T05:36:41.528Z,77.70
2017-07-11T05:39:07.704Z,77.20
2017-07-11T05:41:33.893Z,76.80
2017-07-11T05:44:00.811Z,76.60
2017-07-11T05:46:26.999Z,76.60
2017-07-11T05:48:53.192Z,74.90
2017-07-11T05:51:20.090Z,73.90
2017-07-11T05:53:46.343Z,73.90
2017-07-11T05:56:12.532Z,74.00
2017-07-11T05:58:38.699Z,74.70
2017-07-11T06:01:04.887Z,72.10
2017-07-11T06:03:31.018Z,71.50
2017-07-11T06:05:57.197Z,70.30
2017-07-11T06:08:23.425Z,68.50
2017-07-11T06:10:49.595Z,67.40
2017-07-11T06:13:15.763Z,66.90
2017-07-11T06:15:41.981Z,66.80
2017-07-11T06:18:08.191Z,68.00
2017-07-11T06:20:34.367Z,66.70
2017-07-11T06:23:00.558Z,67.60
2017-07-11T06:25:26.715Z,68.00
2017-07-11T06:27:52.868Z,66.60
2017-07-11T06:30:19.451Z,64.70
2017-07-11T06:32:45.640Z,62.10
2017-07-11T06:35:12.615Z,61.60
2017-07-11T06:37:38.800Z,57.70
2017-07-11T06:40:05.720Z,56.90
2017-07-11T06:42:31.955Z,57.40
2017-07-11T06:44:58.127Z,57.00
2017-07-11T06:47:24.325Z,56.60
2017-07-11T06:49:50.508Z,53.20
2017-07-11T06:52:16.687Z,53.80
2017-07-11T06:54:43.639Z,52.10
2017-07-11T06:57:10.531Z,54.60
2017-07-11T06:59:36.719Z,52.50
2017-07-11T07:02:02.892Z,52.00
2017-07-11T07:04:29.079Z,52.40
2017-07-11T07:06:55.284Z,50.60
2017-07-11T07:09:21.420Z,51.50
2017-07-11T07:11:48.363Z,51.20
2017-07-11T07:14:15.293Z,51.00
2017-07-11T07:16:41.490Z,50.30
2017-07-11T07:19:07.691Z,50.20
2017-07-11T07:21:33.909Z,51.10
2017-07-11T07:24:00.083Z,50.20
2017-07-11T07:26:26.252Z,49.30
2017-07-11T07:28:53.186Z,52.10
2017-07-11T07:31:19.366Z,52.20
2017-07-11T07:33:45.562Z,51.80
2017-07-11T07:36:12.511Z,51.30
2017-07-11T07:38:39.408Z,50.90
2017-07-11T07:41:08.198Z,48.00
2017-07-11T07:43:34.401Z,49.40
2017-07-11T07:46:00.590Z,49.20
2017-07-11T07:48:27.524Z,47.00
2017-07-11T07:50:54.510Z,47.60
2017-07-11T07:53:20.695Z,46.20
2017-07-11T07:55:46.889Z,45.10
2017-07-11T07:58:13.103Z,44.60
2017-07-11T08:00:39.286Z,46.00
2017-07-11T08:03:05.460Z,45.20
2017-07-11T08:05:31.684Z,46.50
2017-07-11T08:07:57.879Z,47.50
2017-07-11T08:10:24.856Z,46.30
2017-07-11T08:12:51.079Z,46.30
2017-07-11T08:15:17.240Z,45.70
2017-07-11T08:17:43.460Z,45.40
2017-07-11T08:20:09.635Z,45.20
2017-07-11T08:22:36.560Z,45.70
2017-07-11T08:25:02.731Z,45.50
2017-07-11T08:27:28.910Z,47.40
2017-07-11T08:29:55.075Z,47.00
2017-07-11T08:32:21.290Z,47.40
2017-07-11T08:34:47.532Z,48.70
2017-07-11T08:37:14.470Z,49.60
2017-07-11T08:39:41.374Z,50.10
2017-07-11T08:42:22.484Z,50.00
2017-07-11T08:44:48.637Z,47.30
2017-07-11T08:47:15.515Z,46.30
2017-07-11T08:49:41.727Z,46.30
2017-07-11T08:52:07.881Z,46.10
2017-07-11T08:54:34.107Z,46.40
2017-07-11T08:57:00.289Z,48.50
2017-07-11T08:59:27.220Z,49.70
2017-07-11T09:01:54.153Z,50.90
2017-07-11T09:04:20.314Z,50.90
2017-07-11T09:06:46.475Z,48.80
2017-07-11T09:09:12.686Z,47.30
2017-07-11T09:11:38.871Z,48.30
2017-07-11T09:14:05.025Z,47.90
2017-07-11T09:16:31.240Z,47.00
2017-07-11T09:18:58.171Z,48.40
2017-07-11T09:21:24.371Z,48.00
2017-07-11T09:23:50.530Z,49.70
2017-07-11T09:26:16.711Z,48.80
2017-07-11T09:28:42.892Z,48.80
2017-07-11T09:31:09.857Z,47.70
2017-07-11T09:33:36.055Z,46.10
2017-07-11T09:36:02.222Z,47.20
2017-07-11T09:38:28.440Z,47.90
2017-07-11T09:40:54.981Z,46.70
2017-07-11T09:43:21.158Z,47.10
2017-07-11T09:45:47.328Z,46.20
2017-07-11T09:48:14.622Z,46.50
2017-07-11T09:50:40.789Z,48.30
2017-07-11T09:53:07.012Z,47.70
2017-07-11T09:55:33.158Z,49.80
2017-07-11T09:58:00.139Z,47.40
2017-07-11T10:00:26.315Z,47.40
2017-07-11T10:02:52.458Z,47.50
2017-07-11T10:05:19.389Z,50.10
2017-07-11T10:07:45.598Z,50.10
2017-07-11T10:10:11.833Z,47.90
2017-07-11T10:12:38.019Z,49.20
2017-07-11T10:15:04.190Z,48.90
2017-07-11T10:17:30.750Z,47.70
2017-07-11T10:19:57.669Z,48.00
2017-07-11T10:22:23.891Z,47.80
2017-07-11T10:24:50.043Z,49.50
2017-07-11T10:27:16.603Z,47.00
2017-07-11T10:29:43.522Z,46.40
2017-07-11T10:32:09.787Z,47.50
2017-07-11T10:34:36.001Z,46.20
2017-07-11T10:37:02.909Z,47.80
2017-07-11T10:39:29.144Z,49.50
2017-07-11T10:41:55.616Z,50.10
2017-07-11T10:44:21.887Z,49.00
2017-07-11T10:46:48.058Z,48.20
2017-07-11T10:49:15.782Z,47.60
2017-07-11T10:51:41.973Z,47.50
2017-07-11T10:54:08.182Z,47.50
2017-07-11T10:56:36.308Z,48.80
2017-07-11T10:59:02.492Z,47.60
2017-07-11T11:01:29.496Z,47.20
2017-07-11T11:03:55.667Z,45.70
2017-07-11T11:06:23.800Z,45.40
2017-07-11T11:08:49.955Z,46.90
2017-07-11T11:11:17.304Z,45.90
2017-07-11T11:13:44.491Z,45.10
2017-07-11T11:16:10.771Z,45.40
2017-07-11T11:18:37.372Z,44.60
2017-07-11T11:21:03.609Z,44.40
2017-07-11T11:23:30.593Z,43.70
2017-07-11T11:25:56.874Z,45.20
2017-07-11T11:28:23.063Z,45.30
2017-07-11T11:30:50.025Z,44.50
2017-07-11T11:33:16.565Z,44.10
2017-07-11T11:35:42.740Z,44.90
2017-07-11T11:38:08.952Z,46.20
2017-07-11T11:40:35.130Z,45.00
2017-07-11T11:43:03.254Z,46.30
2017-07-11T11:45:30.087Z,45.00
2017-07-11T11:47:56.249Z,45.60
2017-07-11T11:50:22.458Z,46.10
2017-07-11T11:52:48.685Z,45.20
2017-07-11T11:55:14.881Z,44.70
2017-07-11T11:57:41.137Z,44.70
2017-07-11T12:00:07.341Z,42.70
2017-07-11T12:02:33.605Z,43.60
2017-07-11T12:04:59.769Z,42.80
2017-07-11T12:07:26.001Z,41.70
2017-07-11T12:09:52.535Z,42.50
2017-07-11T12:12:18.753Z,43.10
2017-07-11T12:14:44.963Z,39.70
2017-07-11T12:17:11.510Z,40.30
2017-07-11T12:19:37.717Z,41.50
2017-07-11T12:22:03.874Z,42.00
2017-07-11T12:24:30.065Z,41.90
2017-07-11T12:26:56.236Z,40.70
2017-07-11T12:29:37.366Z,43.20
2017-07-11T12:32:03.569Z,40.30
2017-07-11T12:34:29.748Z,40.70
2017-07-11T12:36:55.915Z,39.80
2017-07-11T12:39:22.885Z,39.70
2017-07-11T12:41:49.038Z,39.70
2017-07-11T12:44:15.232Z,38.80
2017-07-11T12:46:41.427Z,40.30
2017-07-11T12:49:07.648Z,40.30
2017-07-11T12:51:33.848Z,40.60
2017-07-11T12:54:00.067Z,42.00
2017-07-11T12:56:26.280Z,40.50
2017-07-11T12:58:52.421Z,41.10
2017-07-11T13:01:18.621Z,42.00
2017-07-11T13:03:45.565Z,41.70
2017-07-11T13:06:12.511Z,42.40
2017-07-11T13:08:39.441Z,43.30
2017-07-11T13:11:06.387Z,42.50
2017-07-11T13:13:32.557Z,42.50
2017-07-11T13:15:58.735Z,40.90
2017-07-11T13:18:24.914Z,41.40
2017-07-11T13:20:51.106Z,42.00
2017-07-11T13:23:18.056Z,39.30
2017-07-11T13:25:45.005Z,39.30
2017-07-11T13:28:11.918Z,39.60
2017-07-11T13:30:38.119Z,38.80
2017-07-11T13:33:04.316Z,39.00
2017-07-11T13:35:31.264Z,38.50
2017-07-11T13:37:57.444Z,38.20
2017-07-11T13:40:23.660Z,38.70
2017-07-11T13:42:49.820Z,37.90
2017-07-11T13:45:16.008Z,40.20
2017-07-11T13:47:42.258Z,39.00
2017-07-11T13:50:08.495Z,40.60
2017-07-11T13:52:34.688Z,40.60
2017-07-11T13:55:00.916Z,41.50
2017-07-11T13:57:27.120Z,41.90
2017-07-11T13:59:54.038Z,43.20
2017-07-11T14:02:20.212Z,43.10
2017-07-11T14:04:46.411Z,43.40
2017-07-11T14:07:13.475Z,45.80
2017-07-11T14:09:39.731Z,46.90
2017-07-11T14:12:05.935Z,47.30
2017-07-11T14:14:47.049Z,48.10
2017-07-11T14:17:13.241Z,48.60
2017-07-11T14:19:39.460Z,49.70
2017-07-11T14:22:05.661Z,49.70
2017-07-11T14:24:31.866Z,50.90
2017-07-11T14:26:58.058Z,51.10
2017-07-11T14:29:24.291Z,51.30
2017-07-11T14:31:50.520Z,52.00
2017-07-11T14:34:16.720Z,53.10
2017-07-11T14:36:43.663Z,53.50
2017-07-11T14:39:10.588Z,51.20
2017-07-11T14:41:36.799Z,51.10
2017-07-11T14:44:02.992Z,49.70
2017-07-11T14:46:29.217Z,50.70
2017-07-11T14:48:55.410Z,51.70
2017-07-11T14:51:21.599Z,51.10
2017-07-11T14:53:47.780Z,50.90
2017-07-11T14:56:14.705Z,51.60
2017-07-11T14:58:55.875Z,51.60
2017-07-11T15:01:22.025Z,49.90
2017-07-11T15:03:48.215Z,50.90
2017-07-11T15:06:14.422Z,49.80
2017-07-11T15:08:40.632Z,51.10
2017-07-11T15:11:07.564Z,49.90
2017-07-11T15:13:34.510Z,51.00
2017-07-11T15:16:01.471Z,49.80
2017-07-11T15:18:27.667Z,49.20
2017-07-11T15:20:53.825Z,50.30
2017-07-11T15:23:20.731Z,49.60
2017-07-11T15:25:46.911Z,49.50
2017-07-11T15:28:13.054Z,50.50
2017-07-11T15:30:39.400Z,51.00
2017-07-11T15:33:05.615Z,50.90
2017-07-11T15:35:31.787Z,51.60
2017-07-11T15:37:57.996Z,49.40
2017-07-11T15:40:24.308Z,49.00
2017-07-11T15:42:50.531Z,50.60
2017-07-11T15:45:16.740Z,52.00
2017-07-11T15:47:42.913Z,51.20
2017-07-11T15:50:09.110Z,52.20
2017-07-11T15:52:35.316Z,52.50
2017-07-11T15:55:01.544Z,51.10
2017-07-11T15:57:28.485Z,52.60
2017-07-11T15:59:55.418Z,53.00
2017-07-11T16:02:22.359Z,52.10
2017-07-11T16:04:49.280Z,53.60
2017-07-11T16:07:15.876Z,51.50
2017-07-11T16:09:42.110Z,53.00
2017-07-11T16:12:08.657Z,53.40
2017-07-11T16:14:34.852Z,53.00
2017-07-11T16:17:01.779Z,54.40
2017-07-11T16:19:28.009Z,53.80
2017-07-11T16:21:54.988Z,54.30
2017-07-11T16:24:21.186Z,54.50
2017-07-11T16:26:47.403Z,54.30
2017-07-11T16:29:13.595Z,54.50
2017-07-11T16:31:39.750Z,54.50
2017-07-11T16:34:05.936Z,54.70
2017-07-11T16:36:32.132Z,54.40
2017-07-11T16:38:59.092Z,55.10
2017-07-11T16:41:25.396Z,56.00
2017-07-11T16:43:51.657Z,55.50
2017-07-11T16:46:17.820Z,56.30
2017-07-11T16:48:44.020Z,56.70
2017-07-11T16:51:10.240Z,56.60
2017-07-11T16:53:36.439Z,56.60
2017-07-11T16:56:02.696Z,56.70
2017-07-11T16:58:28.961Z,56.70
2017-07-11T17:00:55.180Z,56.80
2017-07-11T17:03:21.351Z,56.70
2017-07-11T17:05:47.591Z,56.90
2017-07-11T17:08:13.809Z,56.60
2017-07-11T17:10:40.397Z,56.50
2017-07-11T17:13:06.573Z,58.00
2017-07-11T17:15:32.749Z,57.30
2017-07-11T17:17:58.939Z,57.10
2017-07-11T17:20:25.180Z,57.10
2017-07-11T17:22:52.238Z,58.20
2017-07-11T17:25:19.166Z,57.60
2017-07-11T17:27:46.109Z,57.60
2017-07-11T17:30:12.312Z,56.80
2017-07-11T17:32:38.516Z,57.00
2017-07-11T17:35:04.709Z,56.40
2017-07-11T17:37:33.457Z,57.00
2017-07-11T17:40:01.761Z,56.50
2017-07-11T17:42:29.076Z,57.00
2017-07-11T17:44:56.034Z,57.60
2017-07-11T17:47:22.233Z,57.30
2017-07-11T17:49:49.755Z,57.70
2017-07-11T17:52:15.965Z,57.50
2017-07-11T17:54:42.130Z,57.90
2017-07-11T17:57:08.368Z,58.40
2017-07-11T17:59:34.954Z,58.50
2017-07-11T18:02:01.165Z,58.40
2017-07-11T18:04:27.349Z,58.90
2017-07-11T18:06:54.136Z,58.70
2017-07-11T18:09:20.345Z,59.20
2017-07-11T18:11:46.666Z,59.40
2017-07-11T18:14:12.900Z,59.60
2017-07-11T18:16:39.096Z,60.10
2017-07-11T18:19:06.061Z,60.60
2017-07-11T18:21:32.253Z,61.10
2017-07-11T18:23:58.567Z,61.30
2017-07-11T18:26:24.827Z,61.20
2017-07-11T18:28:51.865Z,62.00
2017-07-11T18:31:18.138Z,62.10
2017-07-11T18:33:44.374Z,62.00
2017-07-11T18:36:10.592Z,62.50
2017-07-11T18:38:36.820Z,62.40
2017-07-11T18:41:03.810Z,62.80
2017-07-11T18:43:30.023Z,62.40
2017-07-11T18:45:56.220Z,62.90
2017-07-11T18:48:23.548Z,62.10
2017-07-11T18:50:51.268Z,62.30
2017-07-11T18:53:17.447Z,62.60
2017-07-11T18:55:44.037Z,63.00
2017-07-11T18:58:10.249Z,63.60
2017-07-11T19:00:36.495Z,63.80
2017-07-11T19:03:02.724Z,63.80
2017-07-11T19:05:28.927Z,63.80
2017-07-11T19:07:56.047Z,64.50
2017-07-11T19:10:22.983Z,65.00
2017-07-11T19:12:49.187Z,65.00
2017-07-11T19:15:16.428Z,64.90
2017-07-11T19:17:42.638Z,65.00
2017-07-11T19:20:08.885Z,65.50
2017-07-11T19:22:35.516Z,65.60
2017-07-11T19:25:01.739Z,65.30
2017-07-11T19:27:27.996Z,65.50
2017-07-11T19:29:54.201Z,66.00
2017-07-11T19:32:21.159Z,66.30
2017-07-11T19:34:47.380Z,66.50
2017-07-11T19:37:13.595Z,66.10
2017-07-11T19:39:42.404Z,65.50
2017-07-11T19:51:53.639Z,65.60
2017-07-11T19:54:19.856Z,65.30
2017-07-11T19:56:46.043Z,65.40
2017-07-11T19:59:12.260Z,65.80
2017-07-11T20:01:38.483Z,65.30
2017-07-11T20:04:05.476Z,65.20
2017-07-11T20:06:32.530Z,65.90
2017-07-11T20:08:58.760Z,65.90
2017-07-11T20:11:24.993Z,66.10
2017-07-11T20:13:51.401Z,65.80
2017-07-11T20:16:18.319Z,66.70
2017-07-11T20:18:44.890Z,66.10
2017-07-11T20:21:11.826Z,66.60
2017-07-11T20:23:38.051Z,66.50
2017-07-11T20:26:04.349Z,66.10
2017-07-11T20:28:35.060Z,66.60
2017-07-11T20:31:01.252Z,66.70
2017-07-11T20:33:28.520Z,67.10
2017-07-11T20:35:55.820Z,66.10
2017-07-11T20:38:24.480Z,66.40
2017-07-11T20:40:50.724Z,67.00
2017-07-11T20:43:16.951Z,67.60
2017-07-11T20:45:43.143Z,67.70
2017-07-11T20:48:10.082Z,67.80
2017-07-11T20:50:36.637Z,67.10
2017-07-11T20:53:02.844Z,67.70
2017-07-11T20:55:29.740Z,68.20
2017-07-11T20:57:56.721Z,67.90
2017-07-11T21:00:22.917Z,68.50
2017-07-11T21:02:49.171Z,68.60
2017-07-11T21:05:15.365Z,68.30
2017-07-11T21:07:42.217Z,68.60
2017-07-11T21:10:08.425Z,69.50
2017-07-11T21:12:34.591Z,68.90
2017-07-11T21:15:01.869Z,68.80
2017-07-11T21:17:29.089Z,69.10
2017-07-11T21:19:55.295Z,69.70
2017-07-11T21:22:21.482Z,70.00
2017-07-11T21:24:48.409Z,71.00
2017-07-11T21:27:14.624Z,70.90
2017-07-11T21:29:40.862Z,70.80
2017-07-11T21:32:07.326Z,70.70
2017-07-11T21:34:33.537Z,70.80
2017-07-11T21:36:59.740Z,71.40
2017-07-11T21:39:25.922Z,71.10
2017-07-11T21:41:52.108Z,70.60
2017-07-11T21:44:18.281Z,70.20
2017-07-11T21:46:44.517Z,71.00
2017-07-11T21:49:10.710Z,70.80
2017-07-11T21:51:36.872Z,71.40
2017-07-11T21:54:03.092Z,71.40
2017-07-11T21:56:29.293Z,70.80
2017-07-11T21:58:55.508Z,70.80
2017-07-11T22:01:21.743Z,71.90
2017-07-11T22:03:47.944Z,72.20
2017-07-11T22:06:14.167Z,72.70
2017-07-11T22:08:41.030Z,73.00
2017-07-11T22:11:07.257Z,73.00
2017-07-11T22:13:33.487Z,73.10
2017-07-11T22:15:59.675Z,73.50
2017-07-11T22:18:40.871Z,73.40
2017-07-11T22:21:07.047Z,73.90
2017-07-11T22:23:33.220Z,74.40
2017-07-11T22:25:59.430Z,74.20
2017-07-11T22:31:14.141Z,74.00
2017-07-11T22:33:40.357Z,74.30
2017-07-11T22:36:06.549Z,74.30
2017-07-11T22:38:33.528Z,74.50
2017-07-11T22:41:00.482Z,74.50
2017-07-11T22:43:27.088Z,74.50
2017-07-11T22:45:54.439Z,74.30
2017-07-11T22:48:21.359Z,75.00
2017-07-11T22:50:47.551Z,74.50
2017-07-11T22:53:13.745Z,74.90
2017-07-11T22:55:40.687Z,74.30
2017-07-11T22:58:06.891Z,74.30
2017-07-11T23:00:33.114Z,74.90
2017-07-11T23:02:59.367Z,75.10
2017-07-11T23:05:26.285Z,76.10
2017-07-11T23:07:52.477Z,74.30
2017-07-11T23:10:18.697Z,74.30
2017-07-11T23:12:45.203Z,74.30
2017-07-11T23:15:12.177Z,73.90
2017-07-11T23:17:38.378Z,74.50
2017-07-11T23:20:06.248Z,74.50
2017-07-11T23:22:33.303Z,73.60
2017-07-11T23:25:00.286Z,73.70
2017-07-11T23:27:26.511Z,72.80
2017-07-11T23:29:52.707Z,72.70
2017-07-11T23:32:18.892Z,73.10
2017-07-11T23:34:45.094Z,73.40
2017-07-11T23:37:11.292Z,73.40
2017-07-11T23:39:53.143Z,74.50
2017-07-11T23:42:19.371Z,74.50
2017-07-11T23:44:45.558Z,74.30
2017-07-11T23:47:11.739Z,75.30
2017-07-11T23:49:37.912Z,74.90
2017-07-11T23:52:04.108Z,74.80
2017-07-11T23:54:45.208Z,76.00
2017-07-11T23:57:11.386Z,74.20
2017-07-11T23:59:38.346Z,74.30
